Airfield :
LOGIN :

Register | Disclaimer

   EN    FR    IT 

 










Legend :    VFR   Marginal VFR   IFR   Intensive IFR   Very Intensive IFR
Visi :
Ceiling :
>= 8 km
>= 3000ft
5 to 8 km
1000 to 3000 ft
1500m to 5 km
500 to 1000 ft
800 to 1500m
200 to 500 ft
< 800m
< 200 ft
Symbols :   Thunderstorms  Fog  Heavy snow  Heavy precipitations  Wind > 20 kt
SIGMETs :     Misc.  Thunderstorms  Icing  Turbulence  Mountain Waves  Volcanic Ashes






- Airport Elevation : 266 ft
- IATA code : NCL


EGNT - Newcastle

CURRENT METAR :
  • 091020Z 31011KT CAVOK 05/00 Q1009

EXPIRED METARs :
  • 090950Z 31012KT CAVOK 04/01 Q1008
  • 090920Z 32015KT CAVOK 04/00 Q1006
  • 090850Z 32018KT CAVOK 04/00 Q1005
  • 090820Z 31016KT CAVOK 04/01 Q1004
  • 090750Z 32020KT 9999 FEW025 04/01 Q1002

TAF TAF EGNT
Valid from the 09 at 06:00 until the 10 at 06:00 UTC


090456Z 0906/1006 32018G30KT 9999 FEW035
PROB30 0906/0909 32025G40KT
BECMG 0913/0916 29008KT
BECMG 0921/0924 16010KT
TEMPO 1000/1006 18015G28KT
ATIS : +44 191 214 3400



MET'MAP, your aeronautical weather chart ! - Copyright ORBIFLY December 2007 - Disclaimer

ORBIFLY MET'MAP TEAM :

Programming & Development : Alexandra Zaïnal
Concept & original design : Baudouin d'Aumeries
Assistance for programming : Marc-Olivier Méhu
Technical & hardware support : Manuel Goepfert

Contact : metmap@orbifly.com




SOURCES & CREDITS :

   NOAA